createdAt,value
2022-12-05T00:02:27.178Z,0.50
2022-12-05T00:04:56.715Z,0.50
2022-12-05T00:07:25.148Z,0.50
2022-12-05T00:09:54.980Z,0.50
2022-12-05T00:12:23.624Z,0.50
2022-12-05T00:14:52.073Z,1.17
2022-12-05T00:17:20.330Z,0.50
2022-12-05T00:19:52.305Z,0.50
2022-12-05T00:22:25.014Z,0.50
2022-12-05T00:24:55.006Z,0.50
2022-12-05T00:27:23.239Z,1.23
2022-12-05T00:29:51.506Z,0.50
2022-12-05T00:32:19.861Z,0.50
2022-12-05T00:34:48.271Z,0.50
2022-12-05T00:37:16.549Z,0.50
2022-12-05T00:39:45.173Z,0.50
2022-12-05T00:42:15.205Z,0.50
2022-12-05T00:44:43.838Z,0.50
2022-12-05T00:47:12.169Z,0.50
2022-12-05T00:49:40.430Z,0.50
2022-12-05T00:52:08.878Z,0.50
2022-12-05T00:54:37.151Z,0.50
2022-12-05T00:57:06.537Z,4.93
2022-12-05T00:59:36.246Z,0.50
2022-12-05T01:02:04.996Z,0.50
2022-12-05T01:04:33.284Z,0.50
2022-12-05T01:07:01.566Z,0.50
2022-12-05T01:09:31.306Z,0.50
2022-12-05T01:11:59.711Z,0.50
2022-12-05T01:14:28.610Z,0.50
2022-12-05T01:16:58.818Z,0.50
2022-12-05T01:19:28.743Z,0.50
2022-12-05T01:21:58.063Z,0.50
2022-12-05T01:24:27.669Z,0.50
2022-12-05T01:26:56.883Z,0.50
2022-12-05T01:29:25.945Z,0.50
2022-12-05T01:31:54.756Z,0.50
2022-12-05T01:34:24.799Z,0.50
2022-12-05T01:36:53.182Z,0.50
2022-12-05T01:39:21.489Z,0.50
2022-12-05T01:41:50.848Z,0.50
2022-12-05T01:44:56.453Z,0.50
2022-12-05T01:47:26.554Z,0.50
2022-12-05T01:49:57.430Z,0.50
2022-12-05T01:52:28.479Z,0.50
2022-12-05T01:54:59.496Z,0.50
2022-12-05T01:57:30.143Z,0.50
2022-12-05T02:00:02.171Z,0.50
2022-12-05T02:02:43.403Z,0.50
2022-12-05T02:05:16.989Z,0.50
2022-12-05T02:07:45.516Z,0.50
2022-12-05T02:10:14.284Z,0.50
2022-12-05T02:12:43.252Z,11.93
2022-12-05T02:15:22.392Z,0.50
2022-12-05T02:17:56.950Z,0.50
2022-12-05T02:20:34.928Z,0.50
2022-12-05T02:23:40.155Z,0.50
2022-12-05T02:26:39.292Z,0.50
2022-12-05T02:29:39.483Z,0.50
2022-12-05T02:32:12.640Z,0.50
2022-12-05T02:34:48.384Z,0.50
2022-12-05T02:37:22.176Z,0.50
2022-12-05T02:39:55.288Z,0.50
2022-12-05T02:42:28.234Z,28.33
2022-12-05T02:44:59.288Z,29.70
2022-12-05T02:47:32.207Z,29.10
2022-12-05T02:50:01.059Z,32.50
2022-12-05T02:52:30.379Z,30.53
2022-12-05T02:54:59.387Z,33.30
2022-12-05T02:57:27.642Z,30.37
2022-12-05T02:59:56.135Z,30.33
2022-12-05T03:02:26.306Z,27.83
2022-12-05T03:04:58.015Z,29.30
2022-12-05T03:07:28.187Z,29.80
2022-12-05T03:09:58.354Z,28.60
2022-12-05T03:12:28.974Z,31.47
2022-12-05T03:14:59.488Z,29.80
2022-12-05T03:17:35.164Z,28.97
2022-12-05T03:20:08.876Z,29.03
2022-12-05T03:22:41.308Z,36.33
2022-12-05T03:25:10.070Z,32.77
2022-12-05T03:27:48.045Z,36.90
2022-12-05T03:30:17.854Z,29.97
2022-12-05T03:32:51.182Z,32.90
2022-12-05T03:35:25.008Z,29.73
2022-12-05T03:37:56.162Z,26.37
2022-12-05T03:40:29.129Z,25.43
2022-12-05T03:43:02.856Z,28.33
2022-12-05T03:45:36.038Z,28.10
2022-12-05T03:48:12.426Z,27.13
2022-12-05T03:50:44.206Z,33.10
2022-12-05T03:53:19.938Z,30.97
2022-12-05T03:55:52.431Z,37.37
2022-12-05T03:58:24.856Z,37.70
2022-12-05T04:00:54.338Z,35.60
2022-12-05T04:03:26.537Z,47.23
2022-12-05T04:05:58.138Z,50.43
2022-12-05T04:08:29.001Z,52.40
2022-12-05T04:11:01.822Z,79.90
2022-12-05T04:13:34.837Z,52.43
2022-12-05T04:16:23.850Z,82.77
2022-12-05T04:18:55.770Z,57.63
2022-12-05T04:21:39.184Z,68.20
2022-12-05T04:24:27.960Z,44.70
2022-12-05T04:27:08.035Z,47.77
2022-12-05T04:29:39.301Z,51.87
2022-12-05T04:32:10.818Z,42.20
2022-12-05T04:34:39.263Z,39.30
2022-12-05T04:37:12.659Z,37.30
2022-12-05T04:39:47.167Z,34.97
2022-12-05T04:42:17.500Z,31.40
2022-12-05T04:44:49.075Z,34.93
2022-12-05T04:47:19.223Z,33.03
2022-12-05T04:49:52.175Z,31.73
2022-12-05T04:52:23.994Z,28.13
2022-12-05T04:54:54.707Z,27.70
2022-12-05T04:57:25.877Z,29.17
2022-12-05T04:59:54.334Z,45.30
2022-12-05T05:02:26.476Z,39.83
2022-12-05T05:04:56.229Z,41.93
2022-12-05T05:07:26.241Z,27.63
2022-12-05T05:09:54.536Z,31.43
2022-12-05T05:12:22.836Z,29.20
2022-12-05T05:14:51.102Z,28.07
2022-12-05T05:17:19.981Z,33.80
2022-12-05T05:19:49.045Z,35.07
2022-12-05T05:22:17.622Z,27.83
2022-12-05T05:24:47.633Z,25.77
2022-12-05T05:27:15.997Z,24.13
2022-12-05T05:29:44.503Z,24.70
2022-12-05T05:32:12.785Z,23.07
2022-12-05T05:34:41.372Z,24.27
2022-12-05T05:37:09.838Z,26.00
2022-12-05T05:39:38.160Z,30.20
2022-12-05T05:42:07.960Z,26.23
2022-12-05T05:44:36.471Z,31.23
2022-12-05T05:47:05.120Z,24.07
2022-12-05T05:49:33.499Z,26.80
2022-12-05T05:52:01.786Z,29.37
2022-12-05T05:54:30.296Z,22.23
2022-12-05T05:56:58.628Z,27.07
2022-12-05T05:59:28.332Z,33.17
2022-12-05T06:01:56.623Z,30.13
2022-12-05T06:04:24.999Z,34.63
2022-12-05T06:06:53.335Z,33.33
2022-12-05T06:09:21.649Z,29.30
2022-12-05T06:11:50.210Z,29.87
2022-12-05T06:14:18.861Z,27.87
2022-12-05T06:16:48.762Z,28.43
2022-12-05T06:19:17.349Z,23.50
2022-12-05T06:21:45.751Z,27.93
2022-12-05T06:24:14.321Z,32.27
2022-12-05T06:26:42.783Z,29.30
2022-12-05T06:29:11.181Z,27.73
2022-12-05T06:31:39.544Z,26.30
2022-12-05T06:34:09.621Z,31.90
2022-12-05T06:36:37.900Z,30.50
2022-12-05T06:39:06.420Z,28.90
2022-12-05T06:41:34.884Z,33.57
2022-12-05T06:44:03.715Z,32.47
2022-12-05T06:46:33.171Z,30.50
2022-12-05T06:49:01.500Z,27.93
2022-12-05T06:51:33.457Z,32.43
2022-12-05T06:54:01.788Z,31.50
2022-12-05T06:56:30.063Z,28.57
2022-12-05T06:58:58.336Z,28.17
2022-12-05T07:01:42.624Z,25.77
2022-12-05T07:04:14.014Z,27.47
2022-12-05T07:06:50.159Z,25.73
2022-12-05T07:09:19.709Z,26.57
2022-12-05T07:11:48.654Z,25.87
2022-12-05T07:14:38.965Z,28.30
2022-12-05T07:17:05.850Z,25.13
2022-12-05T07:19:34.228Z,27.43
2022-12-05T07:22:04.938Z,25.27
2022-12-05T07:24:33.339Z,25.17
2022-12-05T07:27:01.560Z,28.83
2022-12-05T07:29:30.066Z,24.17
2022-12-05T07:31:58.517Z,32.57
2022-12-05T07:34:27.014Z,29.40
2022-12-05T07:36:55.303Z,26.47
2022-12-05T07:39:24.985Z,22.80
2022-12-05T07:41:53.225Z,25.00
2022-12-05T07:44:21.567Z,22.50
2022-12-05T07:46:49.843Z,29.00
2022-12-05T07:49:18.131Z,26.20
2022-12-05T07:51:46.494Z,30.87
2022-12-05T07:54:14.777Z,26.73
2022-12-05T07:56:47.781Z,24.23
2022-12-05T07:59:16.632Z,27.23
2022-12-05T08:01:44.974Z,27.33
2022-12-05T08:04:15.581Z,36.43
2022-12-05T08:06:44.464Z,27.77
2022-12-05T08:09:12.832Z,21.53
2022-12-05T08:11:41.071Z,23.73
2022-12-05T08:14:11.471Z,27.37
2022-12-05T08:16:39.859Z,27.20
2022-12-05T08:19:09.953Z,27.13
2022-12-05T08:21:38.220Z,31.03
2022-12-05T08:24:07.438Z,26.40
2022-12-05T08:26:37.410Z,26.30
2022-12-05T08:29:07.438Z,25.30
2022-12-05T08:31:40.552Z,25.40
2022-12-05T08:34:09.042Z,24.30
2022-12-05T08:36:37.784Z,23.60
2022-12-05T08:39:08.098Z,24.50
2022-12-05T08:41:36.402Z,24.53
2022-12-05T08:44:06.699Z,24.67
2022-12-05T08:46:37.818Z,24.43
2022-12-05T08:49:07.374Z,28.13
2022-12-05T08:51:36.063Z,24.13
2022-12-05T08:54:05.089Z,26.90
2022-12-05T08:56:34.081Z,21.13
2022-12-05T08:59:05.615Z,25.90
2022-12-05T09:01:38.758Z,25.10
2022-12-05T09:04:08.357Z,22.03
2022-12-05T09:06:36.650Z,24.33
2022-12-05T09:09:07.681Z,23.07
2022-12-05T09:11:40.952Z,25.47
2022-12-05T09:14:09.427Z,20.43
2022-12-05T09:16:40.642Z,22.00
2022-12-05T09:19:14.600Z,26.73
2022-12-05T09:21:43.670Z,21.30
2022-12-05T09:24:13.514Z,23.30
2022-12-05T09:26:42.577Z,26.47
2022-12-05T09:29:16.703Z,20.87
2022-12-05T09:31:47.529Z,27.03
2022-12-05T09:34:18.349Z,24.50
2022-12-05T09:37:05.539Z,20.93
2022-12-05T09:39:40.578Z,23.40
2022-12-05T09:42:36.917Z,23.80
2022-12-05T09:45:20.211Z,23.23
2022-12-05T09:47:56.338Z,25.10
2022-12-05T09:50:34.891Z,22.00
2022-12-05T09:53:11.926Z,21.70
2022-12-05T09:55:48.571Z,21.43
2022-12-05T09:58:38.922Z,22.03
2022-12-05T10:01:27.478Z,21.40
2022-12-05T10:04:26.145Z,21.30
2022-12-05T10:07:01.925Z,19.40
2022-12-05T10:09:41.870Z,22.50
2022-12-05T10:12:17.187Z,19.90
2022-12-05T10:14:53.457Z,19.37
2022-12-05T10:17:25.475Z,21.50
2022-12-05T10:19:58.803Z,23.67
2022-12-05T10:22:30.819Z,24.30
2022-12-05T10:25:02.739Z,18.20
2022-12-05T10:27:39.963Z,19.70
2022-12-05T10:30:15.723Z,19.97
2022-12-05T10:32:53.371Z,21.67
2022-12-05T10:35:24.826Z,23.57
2022-12-05T10:37:55.968Z,19.80
2022-12-05T10:40:25.892Z,23.07
2022-12-05T10:42:54.211Z,21.27
2022-12-05T10:45:24.377Z,20.60
2022-12-05T10:47:55.976Z,25.17
2022-12-05T10:50:30.675Z,20.77
2022-12-05T10:53:01.830Z,21.70
2022-12-05T10:55:32.683Z,18.57
2022-12-05T10:58:17.276Z,17.83
2022-12-05T11:00:48.467Z,20.37
2022-12-05T11:03:26.042Z,19.77
2022-12-05T11:05:57.939Z,20.23
2022-12-05T11:08:55.978Z,20.40
2022-12-05T11:11:21.661Z,15.20
2022-12-05T11:13:54.974Z,16.97
2022-12-05T11:16:26.085Z,17.40
2022-12-05T11:18:54.517Z,16.53
2022-12-05T11:21:24.323Z,18.97
2022-12-05T11:23:52.713Z,19.13
2022-12-05T11:26:37.689Z,16.63
2022-12-05T11:29:06.448Z,16.30
2022-12-05T11:31:35.302Z,17.20
2022-12-05T11:34:15.106Z,17.87
2022-12-05T11:36:48.380Z,18.13
2022-12-05T11:39:17.737Z,16.40
2022-12-05T11:41:58.804Z,17.80
2022-12-05T11:44:42.035Z,18.30
2022-12-05T11:47:19.107Z,15.37
2022-12-05T11:50:09.464Z,15.93
2022-12-05T11:52:51.765Z,17.23
2022-12-05T11:55:24.185Z,19.97
2022-12-05T11:58:25.403Z,21.00
2022-12-05T12:01:03.716Z,20.47
2022-12-05T12:03:45.068Z,19.13
2022-12-05T12:06:26.719Z,19.20
2022-12-05T12:09:10.500Z,15.90
2022-12-05T12:11:43.074Z,20.60
2022-12-05T12:14:17.513Z,19.03
2022-12-05T12:16:54.886Z,16.63
2022-12-05T12:19:34.553Z,20.37
2022-12-05T12:22:13.786Z,15.57
2022-12-05T12:24:58.832Z,17.70
2022-12-05T12:27:41.668Z,15.77
2022-12-05T12:30:15.835Z,17.97
2022-12-05T12:32:54.540Z,18.80
2022-12-05T12:35:32.842Z,18.60
2022-12-05T12:38:29.576Z,17.17
2022-12-05T12:41:03.619Z,18.63
2022-12-05T12:43:58.860Z,18.53
2022-12-05T12:46:39.486Z,17.47
2022-12-05T12:49:25.501Z,17.40
2022-12-05T12:51:55.089Z,18.07
2022-12-05T12:55:02.277Z,20.43
2022-12-05T12:57:28.834Z,16.30
2022-12-05T13:00:05.557Z,17.47
2022-12-05T13:02:37.933Z,20.73
2022-12-05T13:05:09.029Z,17.97
2022-12-05T13:07:41.780Z,18.10
2022-12-05T13:10:18.444Z,18.60
2022-12-05T13:12:48.539Z,20.47
2022-12-05T13:15:21.404Z,18.90
2022-12-05T13:17:50.624Z,18.70
2022-12-05T13:20:22.202Z,17.43
2022-12-05T13:22:52.109Z,19.60
2022-12-05T13:25:23.409Z,19.67
2022-12-05T13:27:59.070Z,16.87
2022-12-05T13:30:28.396Z,15.73
2022-12-05T13:32:58.549Z,16.60
2022-12-05T13:35:49.668Z,16.43
2022-12-05T13:38:40.442Z,14.50
2022-12-05T13:41:26.500Z,16.63
2022-12-05T13:44:06.429Z,19.37
2022-12-05T13:46:36.651Z,17.53
2022-12-05T13:49:08.848Z,16.03
2022-12-05T13:51:41.853Z,14.30
2022-12-05T13:54:13.983Z,16.90
2022-12-05T13:56:51.822Z,19.97
2022-12-05T13:59:58.127Z,19.20
2022-12-05T14:02:52.308Z,21.40
2022-12-05T14:05:41.112Z,20.27
2022-12-05T14:08:48.912Z,24.47
2022-12-05T14:11:18.196Z,26.60
2022-12-05T14:13:46.876Z,23.93
2022-12-05T14:16:49.712Z,28.43
2022-12-05T14:19:49.372Z,21.33
2022-12-05T14:22:41.552Z,26.03
2022-12-05T14:25:17.954Z,30.37
2022-12-05T14:27:52.633Z,24.83
2022-12-05T14:30:26.040Z,25.37
2022-12-05T14:32:55.388Z,29.57
2022-12-05T14:35:30.050Z,28.77
2022-12-05T14:38:01.108Z,32.57
2022-12-05T14:40:33.089Z,30.87
2022-12-05T14:43:03.289Z,29.63
2022-12-05T14:45:35.253Z,30.80
2022-12-05T14:48:06.891Z,33.50
2022-12-05T14:50:43.474Z,30.83
2022-12-05T14:53:37.728Z,41.40
2022-12-05T14:56:17.774Z,33.20
2022-12-05T14:58:50.628Z,35.77
2022-12-05T15:01:21.290Z,34.40
2022-12-05T15:04:05.006Z,33.70
2022-12-05T15:06:37.699Z,36.57
2022-12-05T15:09:36.089Z,40.20
2022-12-05T15:11:58.908Z,42.07
2022-12-05T15:14:31.407Z,41.67
2022-12-05T15:17:01.292Z,40.77
2022-12-05T15:19:32.924Z,32.60
2022-12-05T15:22:07.925Z,34.30
2022-12-05T15:24:39.806Z,32.73
2022-12-05T15:27:12.889Z,35.37
2022-12-05T15:29:41.644Z,34.30
2022-12-05T15:32:17.906Z,33.77
2022-12-05T15:34:48.594Z,31.03
2022-12-05T15:37:21.804Z,34.37
2022-12-05T15:39:56.820Z,29.13
2022-12-05T15:42:30.210Z,27.47
2022-12-05T15:45:16.039Z,32.90
2022-12-05T15:47:47.777Z,25.33
2022-12-05T15:50:16.828Z,28.10
2022-12-05T15:52:50.787Z,31.83
2022-12-05T15:55:22.204Z,25.50
2022-12-05T15:57:56.247Z,23.40
2022-12-05T16:00:26.411Z,26.50
2022-12-05T16:02:58.218Z,25.40
2022-12-05T16:05:30.141Z,26.37
2022-12-05T16:08:02.110Z,28.93
2022-12-05T16:10:32.061Z,35.93
2022-12-05T16:13:06.489Z,29.57
2022-12-05T16:15:35.361Z,34.07
2022-12-05T16:18:06.176Z,28.30
2022-12-05T16:20:36.192Z,23.60
2022-12-05T16:23:07.001Z,25.30
2022-12-05T16:25:37.244Z,25.57
2022-12-05T16:28:17.609Z,25.93
2022-12-05T16:30:59.173Z,27.80
2022-12-05T16:33:28.533Z,28.33
2022-12-05T16:35:57.153Z,30.20
2022-12-05T16:38:30.044Z,25.37
2022-12-05T16:41:00.529Z,27.13
2022-12-05T16:43:43.007Z,26.07
2022-12-05T16:46:45.920Z,26.30
2022-12-05T16:49:37.828Z,26.67
2022-12-05T16:52:15.607Z,25.40
2022-12-05T16:54:48.340Z,25.33
2022-12-05T16:57:18.722Z,27.93
2022-12-05T16:59:49.561Z,30.17
2022-12-05T17:02:21.759Z,27.90
2022-12-05T17:04:50.489Z,24.90
2022-12-05T17:07:19.559Z,26.03
2022-12-05T17:09:50.840Z,27.30
2022-12-05T17:12:24.730Z,25.00
2022-12-05T17:14:53.511Z,25.30
2022-12-05T17:17:29.257Z,26.93
2022-12-05T17:19:59.461Z,32.00
2022-12-05T17:22:28.789Z,34.20
2022-12-05T17:25:01.559Z,33.90
2022-12-05T17:27:33.795Z,27.30
2022-12-05T17:30:02.501Z,33.80
2022-12-05T17:32:31.710Z,34.87
2022-12-05T17:35:06.577Z,34.17
2022-12-05T17:37:36.322Z,31.13
2022-12-05T17:40:08.697Z,31.47
2022-12-05T17:42:38.979Z,30.47
2022-12-05T17:45:10.743Z,37.17
2022-12-05T17:47:39.208Z,29.20
2022-12-05T17:50:09.145Z,28.00
2022-12-05T17:52:38.016Z,31.07
2022-12-05T17:55:18.554Z,32.27
2022-12-05T17:57:50.157Z,38.90
2022-12-05T18:00:22.281Z,36.03
2022-12-05T18:02:52.960Z,30.00
2022-12-05T18:05:22.204Z,30.40
2022-12-05T18:07:52.021Z,32.40
2022-12-05T18:10:24.211Z,31.93
2022-12-05T18:12:57.355Z,28.07
2022-12-05T18:15:26.049Z,29.30
2022-12-05T18:17:56.107Z,30.07
2022-12-05T18:20:25.482Z,31.20
2022-12-05T18:22:55.362Z,26.73
2022-12-05T18:25:26.856Z,31.43
2022-12-05T18:27:56.623Z,26.57
2022-12-05T18:30:25.965Z,26.43
2022-12-05T18:32:55.417Z,25.00
2022-12-05T18:35:40.700Z,24.50
2022-12-05T18:38:15.906Z,28.80
2022-12-05T18:40:47.732Z,25.30
2022-12-05T18:43:17.939Z,29.20
2022-12-05T18:45:47.657Z,28.67
2022-12-05T18:48:38.750Z,24.80
2022-12-05T18:51:13.068Z,25.20
2022-12-05T18:53:52.897Z,22.50
2022-12-05T18:56:28.324Z,25.33
2022-12-05T18:59:00.536Z,25.00
2022-12-05T19:01:31.574Z,24.17
2022-12-05T19:04:06.074Z,25.20
2022-12-05T19:06:52.348Z,25.77
2022-12-05T19:09:26.964Z,21.60
2022-12-05T19:12:03.930Z,21.17
2022-12-05T19:17:55.914Z,26.93
2022-12-05T19:20:29.368Z,25.00
2022-12-05T19:23:03.256Z,22.27
2022-12-05T19:28:59.902Z,27.20
2022-12-05T19:32:06.642Z,23.73
2022-12-05T19:35:05.469Z,24.00
2022-12-05T19:37:37.394Z,24.07
2022-12-05T19:40:18.580Z,0.50
2022-12-05T19:42:49.570Z,0.50
2022-12-05T19:45:22.143Z,0.50
2022-12-05T19:47:52.386Z,0.50
2022-12-05T19:50:29.188Z,0.50
2022-12-05T19:53:08.872Z,0.60
2022-12-05T19:55:41.361Z,0.50
2022-12-05T19:58:12.065Z,0.50
2022-12-05T20:00:49.556Z,0.50
2022-12-05T20:03:19.325Z,0.50
2022-12-05T20:05:58.966Z,0.50
2022-12-05T20:08:38.825Z,0.50
2022-12-05T20:11:12.952Z,1.57
2022-12-05T20:13:47.864Z,0.50
2022-12-05T20:16:22.361Z,8.63
2022-12-05T20:18:53.370Z,0.50
2022-12-05T20:21:24.405Z,0.50
2022-12-05T20:23:55.203Z,0.50
2022-12-05T20:26:28.130Z,0.50
2022-12-05T20:28:59.440Z,0.60
2022-12-05T20:31:37.165Z,0.50
2022-12-05T20:34:07.914Z,0.50
2022-12-05T20:36:39.030Z,0.50
2022-12-05T20:39:18.085Z,0.50
2022-12-05T20:41:51.053Z,0.50
2022-12-05T20:44:20.902Z,0.50
2022-12-05T20:46:55.871Z,0.50
2022-12-05T20:49:26.556Z,0.50
2022-12-05T20:51:58.265Z,0.50
2022-12-05T20:54:28.153Z,0.50
2022-12-05T20:56:58.718Z,0.50
2022-12-05T20:59:28.189Z,0.50
2022-12-05T21:01:59.253Z,0.50
2022-12-05T21:04:28.977Z,0.50
2022-12-05T21:06:58.807Z,0.50
2022-12-05T21:09:30.504Z,0.50
2022-12-05T21:12:00.967Z,0.50
2022-12-05T21:14:29.701Z,0.50
2022-12-05T21:17:01.668Z,0.50
2022-12-05T21:19:31.702Z,0.50
2022-12-05T21:22:01.204Z,0.50
2022-12-05T21:24:30.143Z,0.70
2022-12-05T21:26:58.556Z,0.50
2022-12-05T21:29:27.401Z,0.50
2022-12-05T21:31:55.697Z,0.50
2022-12-05T21:34:25.456Z,0.50
2022-12-05T21:36:53.911Z,0.50
2022-12-05T21:39:23.106Z,1.00
2022-12-05T21:41:51.552Z,0.50
2022-12-05T21:44:20.403Z,0.50
2022-12-05T21:46:49.614Z,0.50
2022-12-05T21:49:18.198Z,0.50
2022-12-05T21:51:47.950Z,0.50
2022-12-05T21:54:16.529Z,0.50
2022-12-05T21:56:45.372Z,0.50
2022-12-05T21:59:13.789Z,0.50
2022-12-05T22:01:42.196Z,0.50
2022-12-05T22:04:10.580Z,0.50
2022-12-05T22:06:40.571Z,0.50
2022-12-05T22:09:12.141Z,0.50
2022-12-05T22:11:41.850Z,0.50
2022-12-05T22:14:10.621Z,0.50
2022-12-05T22:16:38.962Z,0.50
2022-12-05T22:19:07.547Z,30.20
2022-12-05T22:21:35.998Z,0.50
2022-12-05T22:24:04.517Z,0.50
2022-12-05T22:26:34.312Z,0.50
2022-12-05T22:29:02.656Z,1.57
2022-12-05T22:31:31.125Z,0.60
2022-12-05T22:34:00.191Z,0.50
2022-12-05T22:36:28.566Z,0.50
2022-12-05T22:38:57.270Z,0.50
2022-12-05T22:41:27.119Z,0.50
2022-12-05T22:43:58.375Z,0.50
2022-12-05T22:46:29.341Z,0.50
2022-12-05T22:48:58.713Z,0.50
2022-12-05T22:51:28.123Z,0.50
2022-12-05T22:53:57.118Z,0.50
2022-12-05T22:56:27.783Z,0.50
2022-12-05T22:59:01.926Z,0.90
2022-12-05T23:01:31.804Z,0.50
2022-12-05T23:04:01.328Z,0.50
2022-12-05T23:06:31.091Z,0.60
2022-12-05T23:08:59.886Z,0.50
2022-12-05T23:11:29.848Z,0.50
2022-12-05T23:14:02.183Z,0.50
2022-12-05T23:16:33.276Z,0.50
2022-12-05T23:19:04.047Z,0.50
2022-12-05T23:21:34.386Z,0.50
2022-12-05T23:24:09.090Z,0.50
2022-12-05T23:26:39.461Z,0.50
2022-12-05T23:29:12.154Z,0.50
2022-12-05T23:31:40.669Z,0.50
2022-12-05T23:34:09.761Z,0.50
2022-12-05T23:36:39.230Z,0.50
2022-12-05T23:39:07.960Z,0.50
2022-12-05T23:41:36.469Z,0.50
2022-12-05T23:44:07.278Z,0.50
2022-12-05T23:46:38.040Z,7.60
2022-12-05T23:49:06.815Z,0.50
2022-12-05T23:51:40.211Z,0.50
2022-12-05T23:54:11.054Z,0.50
2022-12-05T23:56:40.332Z,0.50
2022-12-05T23:59:10.011Z,7.93
